createdAt,value
2022-10-22T00:01:41.347Z,3.10
2022-10-22T00:04:07.964Z,3.40
2022-10-22T00:06:34.604Z,3.42
2022-10-22T00:09:01.493Z,3.30
2022-10-22T00:11:28.390Z,5.00
2022-10-22T00:13:55.262Z,4.32
2022-10-22T00:16:21.907Z,3.95
2022-10-22T00:18:48.587Z,2.90
2022-10-22T00:21:15.219Z,3.38
2022-10-22T00:23:42.556Z,3.88
2022-10-22T00:26:10.340Z,3.83
2022-10-22T00:28:37.830Z,3.65
2022-10-22T00:31:04.931Z,2.60
2022-10-22T00:33:32.422Z,3.67
2022-10-22T00:35:59.239Z,3.65
2022-10-22T00:38:25.875Z,3.90
2022-10-22T00:40:52.506Z,3.47
2022-10-22T00:43:20.502Z,3.47
2022-10-22T00:45:47.235Z,2.75
2022-10-22T00:48:13.762Z,2.60
2022-10-22T00:50:45.729Z,2.88
2022-10-22T00:53:36.401Z,2.42
2022-10-22T00:56:03.243Z,2.58
2022-10-22T00:58:33.305Z,2.63
2022-10-22T01:01:00.057Z,2.63
2022-10-22T01:03:26.733Z,2.67
2022-10-22T01:05:57.285Z,2.38
2022-10-22T01:08:45.133Z,2.63
2022-10-22T01:11:30.927Z,2.20
2022-10-22T01:14:15.341Z,2.35
2022-10-22T01:17:06.295Z,2.85
2022-10-22T01:19:51.297Z,2.28
2022-10-22T01:22:22.136Z,2.10
2022-10-22T01:25:05.400Z,2.05
2022-10-22T01:27:57.149Z,2.55
2022-10-22T01:30:25.123Z,2.35
2022-10-22T01:32:59.190Z,2.63
2022-10-22T01:35:31.136Z,2.40
2022-10-22T01:38:05.257Z,2.55
2022-10-22T01:40:33.553Z,2.75
2022-10-22T01:43:02.635Z,2.92
2022-10-22T01:45:32.939Z,2.78
2022-10-22T01:48:23.784Z,2.60
2022-10-22T01:51:08.565Z,2.53
2022-10-22T01:53:58.460Z,2.42
2022-10-22T01:56:37.223Z,2.22
2022-10-22T01:59:17.320Z,2.45
2022-10-22T02:01:53.751Z,3.50
2022-10-22T02:04:29.609Z,2.55
2022-10-22T02:07:01.218Z,2.30
2022-10-22T02:09:29.380Z,2.30
2022-10-22T02:11:59.575Z,2.38
2022-10-22T02:14:29.848Z,2.53
2022-10-22T02:16:59.588Z,2.35
2022-10-22T02:19:30.496Z,2.38
2022-10-22T02:21:57.127Z,2.25
2022-10-22T02:24:24.278Z,2.58
2022-10-22T02:27:12.498Z,1.95
2022-10-22T02:29:52.772Z,2.20
2022-10-22T02:32:26.619Z,2.03
2022-10-22T02:34:55.355Z,1.25
2022-10-22T02:37:24.186Z,1.48
2022-10-22T02:39:51.585Z,0.80
2022-10-22T02:42:18.316Z,0.40
2022-10-22T02:44:44.880Z,0.30
2022-10-22T02:47:11.486Z,0.28
2022-10-22T02:49:38.171Z,0.22
2022-10-22T02:52:04.911Z,0.10
2022-10-22T02:54:31.698Z,0.20
2022-10-22T02:56:58.281Z,0.17
2022-10-22T02:59:24.886Z,0.22
2022-10-22T03:01:51.476Z,0.10
2022-10-22T03:04:18.070Z,0.10
2022-10-22T03:06:44.828Z,0.22
2022-10-22T03:09:11.540Z,0.20
2022-10-22T03:11:38.094Z,0.30
2022-10-22T03:14:04.667Z,0.10
2022-10-22T03:16:31.290Z,0.20
2022-10-22T03:18:57.919Z,0.85
2022-10-22T03:21:39.510Z,0.40
2022-10-22T03:24:11.824Z,0.15
2022-10-22T03:26:41.204Z,0.20
2022-10-22T03:29:09.990Z,0.10
2022-10-22T03:31:36.531Z,0.15
2022-10-22T03:34:03.164Z,0.10
2022-10-22T03:36:29.924Z,0.10
2022-10-22T03:38:56.638Z,0.10
2022-10-22T03:41:23.263Z,0.10
2022-10-22T03:43:52.852Z,0.10
2022-10-22T03:46:20.178Z,0.10
2022-10-22T03:48:46.881Z,0.10
2022-10-22T03:51:13.466Z,0.10
2022-10-22T03:53:40.015Z,0.10
2022-10-22T03:56:10.971Z,0.28
2022-10-22T03:58:40.212Z,0.20
2022-10-22T04:01:11.654Z,0.20
2022-10-22T04:03:38.589Z,0.28
2022-10-22T04:06:08.087Z,0.30
2022-10-22T04:08:35.208Z,0.20
2022-10-22T04:11:02.099Z,0.20
2022-10-22T04:13:28.691Z,0.20
2022-10-22T04:15:55.376Z,0.20
2022-10-22T04:18:23.639Z,0.20
2022-10-22T04:20:52.598Z,0.40
2022-10-22T04:23:19.231Z,0.28
2022-10-22T04:25:45.899Z,0.40
2022-10-22T04:28:12.474Z,0.50
2022-10-22T04:30:39.194Z,0.43
2022-10-22T04:33:05.848Z,0.80
2022-10-22T04:35:32.397Z,0.40
2022-10-22T04:37:58.976Z,0.60
2022-10-22T04:40:25.677Z,0.70
2022-10-22T04:42:52.258Z,0.73
2022-10-22T04:45:18.970Z,0.60
2022-10-22T04:47:45.552Z,0.40
2022-10-22T04:50:12.243Z,0.70
2022-10-22T04:52:38.951Z,0.88
2022-10-22T04:55:05.731Z,0.80
2022-10-22T04:57:32.774Z,0.70
2022-10-22T04:59:59.360Z,0.38
2022-10-22T05:02:26.019Z,1.40
2022-10-22T05:04:52.667Z,1.00
2022-10-22T05:07:19.248Z,0.82
2022-10-22T05:09:45.855Z,1.33
2022-10-22T05:12:12.722Z,2.45
2022-10-22T05:14:43.904Z,1.63
2022-10-22T05:17:11.780Z,1.10
2022-10-22T05:19:38.450Z,0.82
2022-10-22T05:22:06.114Z,0.85
2022-10-22T05:24:34.326Z,0.90
2022-10-22T05:27:01.118Z,0.88
2022-10-22T05:29:27.951Z,1.23
2022-10-22T05:31:54.998Z,1.50
2022-10-22T05:34:21.691Z,1.30
2022-10-22T05:36:48.360Z,1.00
2022-10-22T05:39:15.018Z,1.02
2022-10-22T05:41:41.722Z,1.23
2022-10-22T05:44:12.010Z,1.10
2022-10-22T05:46:38.744Z,2.30
2022-10-22T05:49:08.043Z,1.85
2022-10-22T05:51:37.224Z,1.83
2022-10-22T05:54:07.448Z,1.40
2022-10-22T05:56:35.046Z,3.28
2022-10-22T06:01:37.468Z,6.40
2022-10-22T06:04:07.788Z,4.95
2022-10-22T06:06:39.300Z,10.98
2022-10-22T06:12:04.176Z,3.25
2022-10-22T06:14:32.589Z,2.42
2022-10-22T06:17:00.335Z,1.80
2022-10-22T06:19:27.095Z,3.28
2022-10-22T06:21:54.008Z,3.90
2022-10-22T06:24:20.651Z,3.92
2022-10-22T06:26:50.895Z,5.22
2022-10-22T06:29:17.684Z,4.07
2022-10-22T06:31:44.270Z,4.72
2022-10-22T06:34:12.779Z,3.90
2022-10-22T06:36:42.268Z,3.97
2022-10-22T06:39:12.278Z,3.42
2022-10-22T06:41:38.982Z,8.00
2022-10-22T06:44:05.631Z,5.45
2022-10-22T06:46:32.617Z,4.68
2022-10-22T06:49:02.396Z,4.05
2022-10-22T06:51:29.748Z,2.20
2022-10-22T06:53:57.418Z,2.00
2022-10-22T06:56:27.246Z,1.10
2022-10-22T06:58:55.654Z,1.38
2022-10-22T07:01:25.048Z,1.50
2022-10-22T07:03:52.564Z,1.50
2022-10-22T07:06:19.939Z,3.28
2022-10-22T07:08:46.783Z,2.60
2022-10-22T07:11:14.708Z,2.83
2022-10-22T07:13:41.623Z,2.63
2022-10-22T07:16:09.500Z,2.10
2022-10-22T07:18:37.743Z,1.48
2022-10-22T07:21:05.222Z,1.30
2022-10-22T07:23:31.848Z,1.25
2022-10-22T07:25:59.119Z,2.05
2022-10-22T07:28:25.787Z,1.95
2022-10-22T07:30:52.707Z,2.40
2022-10-22T07:33:19.476Z,3.50
2022-10-22T07:35:46.079Z,3.83
2022-10-22T07:38:12.655Z,2.13
2022-10-22T07:40:39.344Z,1.50
2022-10-22T07:43:06.642Z,1.60
2022-10-22T07:45:33.797Z,1.50
2022-10-22T07:48:01.925Z,1.30
2022-10-22T07:50:28.938Z,1.08
2022-10-22T07:52:57.535Z,1.13
2022-10-22T07:55:25.475Z,1.90
2022-10-22T07:57:52.193Z,0.70
2022-10-22T08:00:23.036Z,0.50
2022-10-22T08:02:52.179Z,0.90
2022-10-22T08:05:18.873Z,0.60
2022-10-22T08:07:45.587Z,0.60
2022-10-22T08:10:12.542Z,0.50
2022-10-22T08:12:41.526Z,0.80
2022-10-22T08:15:08.969Z,0.70
2022-10-22T08:17:35.771Z,0.88
2022-10-22T08:20:02.355Z,0.70
2022-10-22T08:22:28.954Z,0.40
2022-10-22T08:24:55.627Z,0.43
2022-10-22T08:27:22.267Z,0.70
2022-10-22T08:29:48.906Z,1.58
2022-10-22T08:32:15.592Z,0.40
2022-10-22T08:34:42.283Z,0.30
2022-10-22T08:37:10.438Z,0.43
2022-10-22T08:39:37.020Z,1.20
2022-10-22T08:42:30.295Z,0.25
2022-10-22T08:45:22.831Z,0.73
2022-10-22T08:47:49.380Z,1.77
2022-10-22T08:50:22.749Z,0.75
2022-10-22T08:52:55.011Z,0.30
2022-10-22T08:55:24.672Z,0.30
2022-10-22T08:58:17.623Z,0.22
2022-10-22T09:01:10.471Z,0.30
2022-10-22T09:03:39.859Z,0.30
2022-10-22T09:06:20.023Z,0.20
2022-10-22T09:08:47.594Z,0.20
2022-10-22T09:11:22.621Z,0.30
2022-10-22T09:13:49.589Z,0.38
2022-10-22T09:16:30.608Z,0.38
2022-10-22T09:19:12.028Z,0.20
2022-10-22T09:21:46.453Z,0.40
2022-10-22T09:24:32.908Z,0.40
2022-10-22T09:27:01.134Z,0.30
2022-10-22T09:29:33.488Z,0.40
2022-10-22T09:32:00.350Z,0.20
2022-10-22T09:34:29.664Z,0.30
2022-10-22T09:37:06.475Z,0.20
2022-10-22T09:39:43.770Z,0.20
2022-10-22T09:42:14.206Z,0.20
2022-10-22T09:44:44.876Z,0.20
2022-10-22T09:47:43.519Z,0.20
2022-10-22T09:50:28.104Z,0.20
2022-10-22T09:53:12.128Z,0.17
2022-10-22T09:55:40.897Z,0.20
2022-10-22T09:58:14.352Z,0.20
2022-10-22T10:00:44.812Z,0.10
2022-10-22T10:03:21.369Z,0.20
2022-10-22T10:05:54.418Z,0.25
2022-10-22T10:08:22.535Z,0.10
2022-10-22T10:11:17.555Z,0.20
2022-10-22T10:14:05.749Z,0.20
2022-10-22T10:16:47.494Z,0.20
2022-10-22T10:19:42.027Z,0.10
2022-10-22T10:22:44.102Z,0.10
2022-10-22T10:25:17.095Z,0.20
2022-10-22T10:27:51.713Z,0.28
2022-10-22T10:30:20.741Z,0.15
2022-10-22T10:32:55.189Z,0.10
2022-10-22T10:35:28.585Z,0.30
2022-10-22T10:38:16.367Z,0.20
2022-10-22T10:41:02.124Z,0.17
2022-10-22T10:44:06.756Z,0.20
2022-10-22T10:46:45.651Z,0.17
2022-10-22T10:49:26.238Z,0.10
2022-10-22T10:52:26.316Z,0.20
2022-10-22T10:55:12.498Z,0.10
2022-10-22T10:57:57.169Z,0.20
2022-10-22T11:00:23.900Z,0.32
2022-10-22T11:03:08.655Z,0.40
2022-10-22T11:05:57.856Z,0.20
2022-10-22T11:08:27.212Z,0.20
2022-10-22T11:10:56.305Z,0.22
2022-10-22T11:13:22.905Z,0.20
2022-10-22T11:16:24.719Z,0.20
2022-10-22T11:19:15.534Z,0.20
2022-10-22T11:22:05.074Z,0.20
2022-10-22T11:24:56.035Z,0.10
2022-10-22T11:27:45.177Z,0.35
2022-10-22T11:30:13.035Z,0.20
2022-10-22T11:32:42.792Z,0.75
2022-10-22T11:35:15.768Z,0.20
2022-10-22T11:37:45.380Z,0.20
2022-10-22T11:40:33.200Z,0.32
2022-10-22T11:43:11.269Z,0.30
2022-10-22T11:45:40.560Z,0.20
2022-10-22T11:48:17.053Z,0.20
2022-10-22T11:50:56.688Z,0.20
2022-10-22T11:53:26.277Z,0.30
2022-10-22T11:56:05.114Z,0.28
2022-10-22T11:58:49.533Z,0.32
2022-10-22T12:01:25.446Z,0.47
2022-10-22T12:03:58.185Z,0.35
2022-10-22T12:06:26.390Z,0.30
2022-10-22T12:08:57.691Z,0.40
2022-10-22T12:11:47.641Z,0.20
2022-10-22T12:14:28.880Z,0.30
2022-10-22T12:17:07.490Z,0.30
2022-10-22T12:19:45.476Z,0.20
2022-10-22T12:22:17.797Z,0.22
2022-10-22T12:24:47.823Z,0.43
2022-10-22T12:27:22.699Z,0.30
2022-10-22T12:29:55.409Z,0.40
2022-10-22T12:32:24.473Z,0.20
2022-10-22T12:34:52.940Z,0.20
2022-10-22T12:37:20.271Z,0.20
2022-10-22T12:39:47.288Z,0.20
2022-10-22T12:42:17.060Z,0.30
2022-10-22T12:44:44.931Z,0.50
2022-10-22T12:47:16.913Z,0.40
2022-10-22T12:49:47.131Z,0.30
2022-10-22T12:52:23.659Z,0.28
2022-10-22T12:54:52.559Z,0.30
2022-10-22T12:57:20.822Z,0.30
2022-10-22T12:59:50.396Z,0.30
2022-10-22T13:02:24.699Z,0.40
2022-10-22T13:05:19.408Z,0.30
2022-10-22T13:07:53.488Z,0.30
2022-10-22T13:10:20.123Z,0.22
2022-10-22T13:12:51.802Z,0.40
2022-10-22T13:15:22.963Z,0.38
2022-10-22T13:17:49.940Z,0.40
2022-10-22T13:20:23.565Z,0.30
2022-10-22T13:23:04.368Z,0.28
2022-10-22T13:25:34.913Z,0.50
2022-10-22T13:28:19.524Z,0.30
2022-10-22T13:31:09.211Z,0.30
2022-10-22T13:33:41.859Z,1.05
2022-10-22T13:36:13.051Z,0.35
2022-10-22T13:38:39.941Z,0.40
2022-10-22T13:41:19.633Z,0.30
2022-10-22T13:43:46.251Z,0.20
2022-10-22T13:46:12.926Z,0.60
2022-10-22T13:48:39.933Z,0.30
2022-10-22T13:51:15.074Z,0.20
2022-10-22T13:53:42.937Z,0.65
2022-10-22T13:56:17.718Z,0.30
2022-10-22T13:58:45.559Z,0.50
2022-10-22T14:01:24.605Z,0.52
2022-10-22T14:03:53.669Z,0.35
2022-10-22T14:06:22.355Z,0.20
2022-10-22T14:08:55.008Z,0.40
2022-10-22T14:11:21.735Z,0.30
2022-10-22T14:13:48.333Z,0.20
2022-10-22T14:16:24.246Z,0.30
2022-10-22T14:18:51.525Z,0.45
2022-10-22T14:21:18.663Z,0.40
2022-10-22T14:23:47.207Z,0.28
2022-10-22T14:26:31.228Z,0.20
2022-10-22T14:29:13.908Z,0.20
2022-10-22T14:31:43.016Z,1.05
2022-10-22T14:34:12.355Z,0.47
2022-10-22T14:36:39.067Z,0.52
2022-10-22T14:39:05.710Z,0.57
2022-10-22T14:41:32.379Z,0.60
2022-10-22T14:43:59.811Z,0.20
2022-10-22T14:46:26.711Z,0.28
2022-10-22T14:48:53.350Z,0.20
2022-10-22T14:51:21.762Z,0.40
2022-10-22T14:53:48.843Z,0.30
2022-10-22T14:56:21.373Z,0.30
2022-10-22T14:58:48.951Z,0.30
2022-10-22T15:01:15.550Z,0.40
2022-10-22T15:03:42.359Z,0.35
2022-10-22T15:06:09.019Z,0.20
2022-10-22T15:08:35.784Z,0.30
2022-10-22T15:11:08.471Z,0.30
2022-10-22T15:13:35.530Z,0.38
2022-10-22T15:16:06.081Z,0.30
2022-10-22T15:18:32.925Z,0.30
2022-10-22T15:21:03.183Z,0.20
2022-10-22T15:23:30.493Z,0.30
2022-10-22T15:25:57.633Z,0.30
2022-10-22T15:28:25.067Z,0.20
2022-10-22T15:30:57.312Z,0.20
2022-10-22T15:33:24.305Z,0.30
2022-10-22T15:35:51.071Z,0.32
2022-10-22T15:38:18.583Z,0.40
2022-10-22T15:40:45.501Z,0.40
2022-10-22T15:43:12.443Z,0.40
2022-10-22T15:45:39.680Z,0.40
2022-10-22T15:48:06.626Z,0.32
2022-10-22T15:50:37.664Z,0.30
2022-10-22T15:53:04.408Z,0.40
2022-10-22T15:55:31.385Z,0.70
2022-10-22T15:58:00.586Z,1.50
2022-10-22T16:00:30.250Z,5.80
2022-10-22T16:02:56.901Z,10.70
2022-10-22T16:05:23.745Z,13.93
2022-10-22T16:07:51.450Z,13.02
2022-10-22T16:10:18.288Z,9.10
2022-10-22T16:12:45.074Z,5.20
2022-10-22T16:15:11.797Z,2.85
2022-10-22T16:17:38.456Z,1.63
2022-10-22T16:20:05.821Z,1.40
2022-10-22T16:22:33.352Z,1.20
2022-10-22T16:24:59.958Z,0.98
2022-10-22T16:27:26.726Z,0.60
2022-10-22T16:29:53.413Z,0.60
2022-10-22T16:32:20.094Z,0.90
2022-10-22T16:34:46.724Z,1.00
2022-10-22T16:37:13.548Z,0.93
2022-10-22T16:39:40.230Z,1.13
2022-10-22T16:42:06.904Z,0.90
2022-10-22T16:44:33.635Z,1.00
2022-10-22T16:47:00.961Z,0.95
2022-10-22T16:49:27.671Z,0.77
2022-10-22T16:51:54.337Z,0.60
2022-10-22T16:54:21.847Z,0.70
2022-10-22T16:56:48.527Z,0.88
2022-10-22T16:59:15.311Z,0.90
2022-10-22T17:01:42.182Z,0.93
2022-10-22T17:04:09.116Z,1.10
2022-10-22T17:06:36.004Z,1.58
2022-10-22T17:09:02.903Z,2.40
2022-10-22T17:11:34.814Z,2.90
2022-10-22T17:14:03.252Z,3.25
2022-10-22T17:16:30.062Z,3.53
2022-10-22T17:18:58.114Z,3.60
2022-10-22T17:21:25.307Z,2.55
2022-10-22T17:23:58.132Z,1.95
2022-10-22T17:26:26.839Z,2.50
2022-10-22T17:28:53.970Z,2.13
2022-10-22T17:31:22.230Z,3.85
2022-10-22T17:33:51.328Z,3.83
2022-10-22T17:36:19.013Z,3.50
2022-10-22T17:38:49.629Z,4.88
2022-10-22T17:41:19.365Z,2.83
2022-10-22T17:43:46.964Z,1.98
2022-10-22T17:46:19.897Z,2.47
2022-10-22T17:48:55.318Z,5.00
2022-10-22T17:51:23.293Z,7.32
2022-10-22T17:53:52.801Z,5.70
2022-10-22T17:56:22.298Z,5.63
2022-10-22T17:58:49.658Z,5.95
2022-10-22T18:01:24.252Z,5.35
2022-10-22T18:03:52.431Z,7.53
2022-10-22T18:06:19.172Z,22.27
2022-10-22T18:08:46.120Z,23.55
2022-10-22T18:11:17.600Z,12.52
2022-10-22T18:13:44.447Z,8.40
2022-10-22T18:16:12.195Z,8.35
2022-10-22T18:18:38.788Z,10.75
2022-10-22T18:21:05.603Z,10.25
2022-10-22T18:23:33.297Z,7.00
2022-10-22T18:26:00.085Z,7.00
2022-10-22T18:28:26.702Z,6.25
2022-10-22T18:30:53.312Z,5.68
2022-10-22T18:33:23.992Z,5.30
2022-10-22T18:35:52.541Z,6.22
2022-10-22T18:38:23.545Z,6.43
2022-10-22T18:40:50.456Z,10.52
2022-10-22T18:43:17.781Z,11.68
2022-10-22T18:45:46.523Z,25.02
2022-10-22T18:48:14.786Z,20.15
2022-10-22T18:50:41.737Z,14.18
2022-10-22T18:53:09.079Z,11.57
2022-10-22T18:55:39.494Z,10.50
2022-10-22T18:58:06.930Z,14.55
2022-10-22T19:00:35.192Z,13.63
2022-10-22T19:03:03.174Z,13.50
2022-10-22T19:05:30.649Z,12.50
2022-10-22T19:07:57.621Z,19.08
2022-10-22T19:10:24.382Z,13.48
2022-10-22T19:12:51.267Z,9.65
2022-10-22T19:15:18.199Z,8.00
2022-10-22T19:17:45.376Z,9.52
2022-10-22T19:20:13.073Z,12.30
2022-10-22T19:22:39.936Z,12.13
2022-10-22T19:25:09.690Z,12.18
2022-10-22T19:27:39.725Z,21.05
2022-10-22T19:30:07.239Z,21.63
2022-10-22T19:32:33.898Z,19.88
2022-10-22T19:35:00.674Z,16.30
2022-10-22T19:37:28.119Z,14.93
2022-10-22T19:39:54.826Z,15.02
2022-10-22T19:42:21.681Z,10.32
2022-10-22T19:44:48.669Z,11.15
2022-10-22T19:47:16.076Z,11.63
2022-10-22T19:49:42.828Z,12.80
2022-10-22T19:52:10.059Z,13.05
2022-10-22T19:54:40.691Z,13.02
2022-10-22T19:57:08.080Z,9.73
2022-10-22T19:59:34.965Z,7.60
2022-10-22T20:02:01.737Z,6.15
2022-10-22T20:04:30.976Z,5.50
2022-10-22T20:06:57.834Z,5.78
2022-10-22T20:09:24.905Z,5.07
2022-10-22T20:11:51.827Z,6.35
2022-10-22T20:14:18.810Z,8.75
2022-10-22T20:16:46.327Z,8.35
2022-10-22T20:19:16.192Z,7.32
2022-10-22T20:21:44.052Z,8.18
2022-10-22T20:24:11.842Z,7.25
2022-10-22T20:26:38.626Z,7.13
2022-10-22T20:29:05.291Z,9.68
2022-10-22T20:31:33.083Z,11.30
2022-10-22T20:34:01.203Z,9.75
2022-10-22T20:36:30.104Z,10.02
2022-10-22T20:39:03.396Z,7.88
2022-10-22T20:41:30.226Z,10.38
2022-10-22T20:43:57.109Z,8.98
2022-10-22T20:46:26.972Z,8.40
2022-10-22T20:48:58.333Z,9.48
2022-10-22T20:51:25.158Z,10.52
2022-10-22T20:53:51.933Z,8.15
2022-10-22T20:56:19.808Z,8.35
2022-10-22T20:58:50.475Z,8.00
2022-10-22T21:01:22.047Z,7.50
2022-10-22T21:03:50.275Z,6.88
2022-10-22T21:06:17.007Z,8.15
2022-10-22T21:08:43.743Z,7.07
2022-10-22T21:11:10.588Z,7.45
2022-10-22T21:13:37.338Z,10.55
2022-10-22T21:16:08.797Z,9.70
2022-10-22T21:18:35.543Z,10.25
2022-10-22T21:21:07.235Z,16.58
2022-10-22T21:23:36.282Z,14.50
2022-10-22T21:26:03.751Z,13.10
2022-10-22T21:28:34.954Z,12.68
2022-10-22T21:31:07.436Z,11.52
2022-10-22T21:33:38.733Z,7.28
2022-10-22T21:36:06.617Z,12.05
2022-10-22T21:38:34.450Z,7.85
2022-10-22T21:41:07.773Z,6.55
2022-10-22T21:43:37.561Z,9.68
2022-10-22T21:46:13.189Z,8.88
2022-10-22T21:48:42.714Z,11.50
2022-10-22T21:51:15.390Z,8.93
2022-10-22T21:53:42.596Z,10.32
2022-10-22T21:56:21.261Z,9.13
2022-10-22T21:58:47.929Z,7.93
2022-10-22T22:01:15.356Z,8.18
2022-10-22T22:03:43.657Z,8.63
2022-10-22T22:06:10.936Z,9.10
2022-10-22T22:08:38.036Z,8.40
2022-10-22T22:11:08.169Z,7.15
2022-10-22T22:13:34.956Z,9.15
2022-10-22T22:16:07.974Z,12.90
2022-10-22T22:18:35.280Z,15.77
2022-10-22T22:21:06.949Z,10.80
2022-10-22T22:23:33.735Z,12.85
2022-10-22T22:26:01.475Z,16.88
2022-10-22T22:28:31.900Z,16.02
2022-10-22T22:30:59.135Z,12.68
2022-10-22T22:33:26.016Z,9.50
2022-10-22T22:35:53.131Z,8.70
2022-10-22T22:38:19.729Z,7.47
2022-10-22T22:40:46.315Z,7.43
2022-10-22T22:43:12.907Z,5.88
2022-10-22T22:45:40.677Z,6.43
2022-10-22T22:48:07.726Z,7.75
2022-10-22T22:50:36.533Z,6.85
2022-10-22T22:53:03.235Z,4.75
2022-10-22T22:55:31.888Z,5.10
2022-10-22T22:57:58.791Z,5.75
2022-10-22T23:00:25.697Z,4.35
2022-10-22T23:02:55.768Z,4.57
2022-10-22T23:05:22.520Z,3.50
2022-10-22T23:07:49.261Z,2.95
2022-10-22T23:10:16.061Z,1.92
2022-10-22T23:12:42.912Z,2.20
2022-10-22T23:15:10.202Z,1.98
2022-10-22T23:20:09.011Z,2.22
2022-10-22T23:22:35.585Z,2.50
2022-10-22T23:25:02.312Z,2.35
2022-10-22T23:27:28.896Z,1.48
2022-10-22T23:29:55.482Z,1.92
2022-10-22T23:32:22.148Z,2.40
2022-10-22T23:34:48.860Z,2.40
2022-10-22T23:37:15.487Z,2.20
2022-10-22T23:39:42.115Z,2.10
2022-10-22T23:42:08.688Z,2.10
2022-10-22T23:44:35.361Z,2.13
2022-10-22T23:47:02.055Z,1.58
2022-10-22T23:49:28.657Z,2.00
2022-10-22T23:51:55.250Z,2.20
2022-10-22T23:54:21.918Z,2.40
2022-10-22T23:56:48.679Z,2.20
2022-10-22T23:59:15.727Z,2.17
